sensor_id;sensor_type;location;lat;lon;timestamp;P1;durP1;ratioP1;P2;durP2;ratioP2
76729;SDS011;65653;53.106;18.046;2023-09-07T00:00:49;6.80;;;4.50;;
76729;SDS011;65653;53.106;18.046;2023-09-07T00:03:34;8.20;;;5.40;;
76729;SDS011;65653;53.106;18.046;2023-09-07T00:06:00;7.90;;;5.50;;
76729;SDS011;65653;53.106;18.046;2023-09-07T00:08:27;8.70;;;6.50;;
76729;SDS011;65653;53.106;18.046;2023-09-07T00:10:53;8.00;;;5.70;;
76729;SDS011;65653;53.106;18.046;2023-09-07T00:13:20;10.20;;;6.20;;
76729;SDS011;65653;53.106;18.046;2023-09-07T00:15:46;6.60;;;5.30;;
76729;SDS011;65653;53.106;18.046;2023-09-07T00:18:13;9.30;;;7.20;;
76729;SDS011;65653;53.106;18.046;2023-09-07T00:20:39;8.20;;;6.10;;
76729;SDS011;65653;53.106;18.046;2023-09-07T00:23:06;6.70;;;5.40;;
76729;SDS011;65653;53.106;18.046;2023-09-07T00:25:33;7.70;;;6.30;;
76729;SDS011;65653;53.106;18.046;2023-09-07T00:27:59;9.00;;;6.00;;
76729;SDS011;65653;53.106;18.046;2023-09-07T00:30:25;7.10;;;5.90;;
76729;SDS011;65653;53.106;18.046;2023-09-07T00:32:53;9.30;;;6.20;;
76729;SDS011;65653;53.106;18.046;2023-09-07T00:35:19;8.60;;;7.00;;
76729;SDS011;65653;53.106;18.046;2023-09-07T00:37:46;8.10;;;6.10;;
76729;SDS011;65653;53.106;18.046;2023-09-07T00:40:12;8.40;;;6.50;;
76729;SDS011;65653;53.106;18.046;2023-09-07T00:42:39;9.90;;;6.90;;
76729;SDS011;65653;53.106;18.046;2023-09-07T00:45:05;11.30;;;7.20;;
76729;SDS011;65653;53.106;18.046;2023-09-07T00:47:33;8.30;;;6.70;;
76729;SDS011;65653;53.106;18.046;2023-09-07T00:50:04;8.00;;;6.70;;
76729;SDS011;65653;53.106;18.046;2023-09-07T00:52:32;8.90;;;7.10;;
76729;SDS011;65653;53.106;18.046;2023-09-07T00:55:03;11.20;;;8.10;;
76729;SDS011;65653;53.106;18.046;2023-09-07T00:57:30;11.00;;;7.00;;
76729;SDS011;65653;53.106;18.046;2023-09-07T00:59:57;10.10;;;7.10;;
76729;SDS011;65653;53.106;18.046;2023-09-07T01:02:24;10.30;;;7.10;;
76729;SDS011;65653;53.106;18.046;2023-09-07T01:04:51;9.50;;;7.60;;
76729;SDS011;65653;53.106;18.046;2023-09-07T01:07:23;10.90;;;8.60;;
76729;SDS011;65653;53.106;18.046;2023-09-07T01:09:53;10.90;;;7.80;;
76729;SDS011;65653;53.106;18.046;2023-09-07T01:12:23;10.40;;;7.60;;
76729;SDS011;65653;53.106;18.046;2023-09-07T01:14:50;10.00;;;8.20;;
76729;SDS011;65653;53.106;18.046;2023-09-07T01:17:16;11.00;;;8.30;;
76729;SDS011;65653;53.106;18.046;2023-09-07T01:19:43;12.30;;;9.30;;
76729;SDS011;65653;53.106;18.046;2023-09-07T01:22:10;14.70;;;8.70;;
76729;SDS011;65653;53.106;18.046;2023-09-07T01:24:37;10.20;;;7.10;;
76729;SDS011;65653;53.106;18.046;2023-09-07T01:27:05;11.10;;;7.80;;
76729;SDS011;65653;53.106;18.046;2023-09-07T01:29:32;15.40;;;9.60;;
76729;SDS011;65653;53.106;18.046;2023-09-07T01:31:59;9.80;;;7.50;;
76729;SDS011;65653;53.106;18.046;2023-09-07T01:34:26;12.40;;;9.00;;
76729;SDS011;65653;53.106;18.046;2023-09-07T01:36:52;13.90;;;10.60;;
76729;SDS011;65653;53.106;18.046;2023-09-07T01:39:19;13.60;;;9.70;;
76729;SDS011;65653;53.106;18.046;2023-09-07T01:41:45;12.30;;;9.30;;
76729;SDS011;65653;53.106;18.046;2023-09-07T01:44:12;11.30;;;8.20;;
76729;SDS011;65653;53.106;18.046;2023-09-07T01:46:39;12.00;;;8.90;;
76729;SDS011;65653;53.106;18.046;2023-09-07T01:49:05;13.20;;;9.60;;
76729;SDS011;65653;53.106;18.046;2023-09-07T01:51:31;14.50;;;10.10;;
76729;SDS011;65653;53.106;18.046;2023-09-07T01:53:58;14.00;;;10.00;;
76729;SDS011;65653;53.106;18.046;2023-09-07T01:56:24;17.70;;;11.70;;
76729;SDS011;65653;53.106;18.046;2023-09-07T01:58:51;16.20;;;11.10;;
76729;SDS011;65653;53.106;18.046;2023-09-07T02:01:23;16.10;;;10.90;;
76729;SDS011;65653;53.106;18.046;2023-09-07T02:03:51;17.20;;;11.10;;
76729;SDS011;65653;53.106;18.046;2023-09-07T02:06:18;15.30;;;11.60;;
76729;SDS011;65653;53.106;18.046;2023-09-07T02:08:45;12.50;;;8.40;;
76729;SDS011;65653;53.106;18.046;2023-09-07T02:11:11;15.90;;;9.60;;
76729;SDS011;65653;53.106;18.046;2023-09-07T02:13:41;18.10;;;11.70;;
76729;SDS011;65653;53.106;18.046;2023-09-07T02:18:35;19.20;;;12.80;;
76729;SDS011;65653;53.106;18.046;2023-09-07T02:21:04;18.80;;;12.80;;
76729;SDS011;65653;53.106;18.046;2023-09-07T02:23:31;14.10;;;9.20;;
76729;SDS011;65653;53.106;18.046;2023-09-07T02:25:59;20.00;;;12.30;;
76729;SDS011;65653;53.106;18.046;2023-09-07T02:28:26;19.50;;;13.00;;
76729;SDS011;65653;53.106;18.046;2023-09-07T02:30:52;16.30;;;10.00;;
76729;SDS011;65653;53.106;18.046;2023-09-07T02:33:19;19.60;;;12.20;;
76729;SDS011;65653;53.106;18.046;2023-09-07T02:35:49;17.10;;;11.80;;
76729;SDS011;65653;53.106;18.046;2023-09-07T02:38:15;26.10;;;14.60;;
76729;SDS011;65653;53.106;18.046;2023-09-07T02:40:42;20.40;;;12.80;;
76729;SDS011;65653;53.106;18.046;2023-09-07T02:43:10;19.50;;;11.90;;
76729;SDS011;65653;53.106;18.046;2023-09-07T02:45:37;21.40;;;13.20;;
76729;SDS011;65653;53.106;18.046;2023-09-07T02:48:04;23.00;;;13.20;;
76729;SDS011;65653;53.106;18.046;2023-09-07T02:50:33;20.10;;;12.50;;
76729;SDS011;65653;53.106;18.046;2023-09-07T02:53:00;18.60;;;10.90;;
76729;SDS011;65653;53.106;18.046;2023-09-07T02:55:27;19.60;;;11.00;;
76729;SDS011;65653;53.106;18.046;2023-09-07T02:57:55;22.00;;;13.70;;
76729;SDS011;65653;53.106;18.046;2023-09-07T03:00:22;24.20;;;14.60;;
76729;SDS011;65653;53.106;18.046;2023-09-07T03:02:49;25.10;;;14.10;;
76729;SDS011;65653;53.106;18.046;2023-09-07T03:05:16;23.50;;;13.80;;
76729;SDS011;65653;53.106;18.046;2023-09-07T03:07:44;26.00;;;13.80;;
76729;SDS011;65653;53.106;18.046;2023-09-07T03:10:11;24.10;;;14.20;;
76729;SDS011;65653;53.106;18.046;2023-09-07T03:12:38;26.00;;;15.20;;
76729;SDS011;65653;53.106;18.046;2023-09-07T03:15:04;24.00;;;14.60;;
76729;SDS011;65653;53.106;18.046;2023-09-07T03:17:31;23.50;;;13.10;;
76729;SDS011;65653;53.106;18.046;2023-09-07T03:19:58;24.80;;;14.80;;
76729;SDS011;65653;53.106;18.046;2023-09-07T03:22:24;26.10;;;14.70;;
76729;SDS011;65653;53.106;18.046;2023-09-07T03:24:51;24.40;;;13.80;;
76729;SDS011;65653;53.106;18.046;2023-09-07T03:27:18;23.70;;;14.50;;
76729;SDS011;65653;53.106;18.046;2023-09-07T03:29:44;20.10;;;12.60;;
76729;SDS011;65653;53.106;18.046;2023-09-07T03:32:11;20.10;;;11.70;;
76729;SDS011;65653;53.106;18.046;2023-09-07T03:34:37;21.90;;;12.80;;
76729;SDS011;65653;53.106;18.046;2023-09-07T03:37:04;23.10;;;14.00;;
76729;SDS011;65653;53.106;18.046;2023-09-07T03:39:32;25.90;;;14.50;;
76729;SDS011;65653;53.106;18.046;2023-09-07T03:41:59;21.60;;;11.50;;
76729;SDS011;65653;53.106;18.046;2023-09-07T03:44:25;19.70;;;11.10;;
76729;SDS011;65653;53.106;18.046;2023-09-07T03:46:52;17.30;;;11.10;;
76729;SDS011;65653;53.106;18.046;2023-09-07T03:49:18;18.50;;;12.10;;
76729;SDS011;65653;53.106;18.046;2023-09-07T03:51:44;17.80;;;10.90;;
76729;SDS011;65653;53.106;18.046;2023-09-07T03:54:11;19.60;;;11.50;;
76729;SDS011;65653;53.106;18.046;2023-09-07T03:56:37;18.70;;;12.20;;
76729;SDS011;65653;53.106;18.046;2023-09-07T03:59:05;15.90;;;10.70;;
76729;SDS011;65653;53.106;18.046;2023-09-07T04:01:32;18.40;;;10.80;;
76729;SDS011;65653;53.106;18.046;2023-09-07T04:03:59;22.60;;;12.50;;
76729;SDS011;65653;53.106;18.046;2023-09-07T04:06:25;20.70;;;12.40;;
76729;SDS011;65653;53.106;18.046;2023-09-07T04:08:52;19.60;;;11.90;;
76729;SDS011;65653;53.106;18.046;2023-09-07T04:11:18;26.60;;;14.80;;
76729;SDS011;65653;53.106;18.046;2023-09-07T04:13:45;27.80;;;15.80;;
76729;SDS011;65653;53.106;18.046;2023-09-07T04:16:12;25.40;;;14.80;;
76729;SDS011;65653;53.106;18.046;2023-09-07T04:18:38;26.80;;;13.90;;
76729;SDS011;65653;53.106;18.046;2023-09-07T04:21:05;26.00;;;14.50;;
76729;SDS011;65653;53.106;18.046;2023-09-07T04:23:32;23.90;;;13.40;;
76729;SDS011;65653;53.106;18.046;2023-09-07T04:26:07;24.10;;;13.80;;
76729;SDS011;65653;53.106;18.046;2023-09-07T04:28:35;21.60;;;13.50;;
76729;SDS011;65653;53.106;18.046;2023-09-07T04:31:02;28.40;;;14.30;;
76729;SDS011;65653;53.106;18.046;2023-09-07T04:33:30;18.30;;;10.90;;
76729;SDS011;65653;53.106;18.046;2023-09-07T04:36:05;19.10;;;11.20;;
76729;SDS011;65653;53.106;18.046;2023-09-07T04:38:39;48.30;;;30.20;;
76729;SDS011;65653;53.106;18.046;2023-09-07T04:41:07;22.10;;;14.00;;
76729;SDS011;65653;53.106;18.046;2023-09-07T04:43:34;22.00;;;13.70;;
76729;SDS011;65653;53.106;18.046;2023-09-07T04:46:01;22.40;;;11.60;;
76729;SDS011;65653;53.106;18.046;2023-09-07T04:48:28;23.70;;;13.00;;
76729;SDS011;65653;53.106;18.046;2023-09-07T04:51:00;22.70;;;13.60;;
76729;SDS011;65653;53.106;18.046;2023-09-07T04:53:30;20.40;;;11.90;;
76729;SDS011;65653;53.106;18.046;2023-09-07T04:55:58;20.20;;;11.50;;
76729;SDS011;65653;53.106;18.046;2023-09-07T04:58:24;15.90;;;10.10;;
76729;SDS011;65653;53.106;18.046;2023-09-07T05:00:51;16.30;;;10.10;;
76729;SDS011;65653;53.106;18.046;2023-09-07T05:03:18;14.90;;;9.20;;
76729;SDS011;65653;53.106;18.046;2023-09-07T05:05:45;16.10;;;9.60;;
76729;SDS011;65653;53.106;18.046;2023-09-07T05:08:16;16.20;;;9.80;;
76729;SDS011;65653;53.106;18.046;2023-09-07T05:10:43;18.80;;;10.00;;
76729;SDS011;65653;53.106;18.046;2023-09-07T05:13:09;14.20;;;8.70;;
76729;SDS011;65653;53.106;18.046;2023-09-07T05:15:36;17.60;;;9.20;;
76729;SDS011;65653;53.106;18.046;2023-09-07T05:18:02;19.00;;;10.50;;
76729;SDS011;65653;53.106;18.046;2023-09-07T05:20:32;17.40;;;9.90;;
76729;SDS011;65653;53.106;18.046;2023-09-07T05:22:58;15.80;;;9.80;;
76729;SDS011;65653;53.106;18.046;2023-09-07T05:25:27;18.00;;;11.40;;
76729;SDS011;65653;53.106;18.046;2023-09-07T05:27:53;15.90;;;10.30;;
76729;SDS011;65653;53.106;18.046;2023-09-07T05:30:20;13.30;;;8.20;;
76729;SDS011;65653;53.106;18.046;2023-09-07T05:32:46;10.70;;;7.50;;
76729;SDS011;65653;53.106;18.046;2023-09-07T05:35:12;14.20;;;9.80;;
76729;SDS011;65653;53.106;18.046;2023-09-07T05:37:42;13.60;;;9.30;;
76729;SDS011;65653;53.106;18.046;2023-09-07T05:40:09;17.40;;;10.90;;
76729;SDS011;65653;53.106;18.046;2023-09-07T05:42:36;15.80;;;10.40;;
76729;SDS011;65653;53.106;18.046;2023-09-07T05:45:03;16.40;;;9.70;;
76729;SDS011;65653;53.106;18.046;2023-09-07T05:47:29;19.00;;;11.80;;
76729;SDS011;65653;53.106;18.046;2023-09-07T05:49:56;11.60;;;8.30;;
76729;SDS011;65653;53.106;18.046;2023-09-07T05:52:22;13.30;;;8.80;;
76729;SDS011;65653;53.106;18.046;2023-09-07T05:54:49;15.20;;;9.20;;
76729;SDS011;65653;53.106;18.046;2023-09-07T05:57:16;12.20;;;8.50;;
76729;SDS011;65653;53.106;18.046;2023-09-07T05:59:43;13.80;;;8.30;;
76729;SDS011;65653;53.106;18.046;2023-09-07T06:02:09;15.50;;;9.60;;
76729;SDS011;65653;53.106;18.046;2023-09-07T06:04:36;14.80;;;9.90;;
76729;SDS011;65653;53.106;18.046;2023-09-07T06:07:02;11.70;;;7.70;;
76729;SDS011;65653;53.106;18.046;2023-09-07T06:09:29;21.20;;;11.70;;
76729;SDS011;65653;53.106;18.046;2023-09-07T06:11:55;19.10;;;11.90;;
76729;SDS011;65653;53.106;18.046;2023-09-07T06:14:22;15.20;;;9.30;;
76729;SDS011;65653;53.106;18.046;2023-09-07T06:16:48;17.50;;;10.50;;
76729;SDS011;65653;53.106;18.046;2023-09-07T06:19:15;12.20;;;7.40;;
76729;SDS011;65653;53.106;18.046;2023-09-07T06:21:41;18.00;;;10.60;;
76729;SDS011;65653;53.106;18.046;2023-09-07T06:24:08;17.60;;;10.00;;
76729;SDS011;65653;53.106;18.046;2023-09-07T06:26:34;14.00;;;9.20;;
76729;SDS011;65653;53.106;18.046;2023-09-07T06:29:01;13.40;;;8.70;;
76729;SDS011;65653;53.106;18.046;2023-09-07T06:31:27;15.00;;;8.60;;
76729;SDS011;65653;53.106;18.046;2023-09-07T06:33:54;10.00;;;6.70;;
76729;SDS011;65653;53.106;18.046;2023-09-07T06:36:21;12.50;;;7.70;;
76729;SDS011;65653;53.106;18.046;2023-09-07T06:38:47;8.30;;;6.70;;
76729;SDS011;65653;53.106;18.046;2023-09-07T06:41:14;10.20;;;6.80;;
76729;SDS011;65653;53.106;18.046;2023-09-07T06:43:40;13.70;;;8.60;;
76729;SDS011;65653;53.106;18.046;2023-09-07T06:46:07;13.30;;;8.70;;
76729;SDS011;65653;53.106;18.046;2023-09-07T06:48:35;9.40;;;7.60;;
76729;SDS011;65653;53.106;18.046;2023-09-07T06:51:05;14.50;;;6.80;;
76729;SDS011;65653;53.106;18.046;2023-09-07T06:53:32;9.80;;;6.90;;
76729;SDS011;65653;53.106;18.046;2023-09-07T06:55:59;12.30;;;5.80;;
76729;SDS011;65653;53.106;18.046;2023-09-07T06:58:26;8.00;;;6.40;;
76729;SDS011;65653;53.106;18.046;2023-09-07T07:00:57;7.60;;;6.10;;
76729;SDS011;65653;53.106;18.046;2023-09-07T07:03:29;7.10;;;5.10;;
76729;SDS011;65653;53.106;18.046;2023-09-07T07:05:57;9.20;;;7.10;;
76729;SDS011;65653;53.106;18.046;2023-09-07T07:08:23;8.80;;;6.90;;
76729;SDS011;65653;53.106;18.046;2023-09-07T07:10:50;8.20;;;6.70;;
76729;SDS011;65653;53.106;18.046;2023-09-07T07:13:16;6.60;;;5.00;;
76729;SDS011;65653;53.106;18.046;2023-09-07T07:15:42;7.60;;;5.50;;
76729;SDS011;65653;53.106;18.046;2023-09-07T07:18:09;7.40;;;6.20;;
76729;SDS011;65653;53.106;18.046;2023-09-07T07:20:36;8.80;;;6.20;;
76729;SDS011;65653;53.106;18.046;2023-09-07T07:23:04;12.20;;;7.30;;
76729;SDS011;65653;53.106;18.046;2023-09-07T07:25:32;8.80;;;5.90;;
76729;SDS011;65653;53.106;18.046;2023-09-07T07:28:00;6.80;;;5.80;;
76729;SDS011;65653;53.106;18.046;2023-09-07T07:30:35;5.80;;;4.90;;
76729;SDS011;65653;53.106;18.046;2023-09-07T07:33:03;8.10;;;5.50;;
76729;SDS011;65653;53.106;18.046;2023-09-07T07:35:30;8.10;;;6.20;;
76729;SDS011;65653;53.106;18.046;2023-09-07T07:37:57;7.40;;;6.20;;
76729;SDS011;65653;53.106;18.046;2023-09-07T07:40:24;7.60;;;5.30;;
76729;SDS011;65653;53.106;18.046;2023-09-07T07:42:51;6.20;;;5.40;;
76729;SDS011;65653;53.106;18.046;2023-09-07T07:45:18;8.70;;;5.60;;
76729;SDS011;65653;53.106;18.046;2023-09-07T07:47:46;10.70;;;6.50;;
76729;SDS011;65653;53.106;18.046;2023-09-07T07:50:12;6.80;;;5.60;;
76729;SDS011;65653;53.106;18.046;2023-09-07T07:52:39;9.50;;;6.80;;
76729;SDS011;65653;53.106;18.046;2023-09-07T07:55:06;8.00;;;5.80;;
76729;SDS011;65653;53.106;18.046;2023-09-07T07:57:34;7.10;;;6.20;;
76729;SDS011;65653;53.106;18.046;2023-09-07T08:00:00;9.40;;;6.40;;
76729;SDS011;65653;53.106;18.046;2023-09-07T08:02:29;8.70;;;6.60;;
76729;SDS011;65653;53.106;18.046;2023-09-07T08:04:57;6.90;;;5.80;;
76729;SDS011;65653;53.106;18.046;2023-09-07T08:07:24;10.00;;;6.60;;
76729;SDS011;65653;53.106;18.046;2023-09-07T08:09:51;6.70;;;5.50;;
76729;SDS011;65653;53.106;18.046;2023-09-07T08:12:17;6.80;;;5.60;;
76729;SDS011;65653;53.106;18.046;2023-09-07T08:14:44;9.80;;;6.50;;
76729;SDS011;65653;53.106;18.046;2023-09-07T08:17:10;6.50;;;5.80;;
76729;SDS011;65653;53.106;18.046;2023-09-07T08:19:37;5.20;;;4.70;;
76729;SDS011;65653;53.106;18.046;2023-09-07T08:22:04;6.40;;;5.30;;
76729;SDS011;65653;53.106;18.046;2023-09-07T08:24:32;6.60;;;5.70;;
76729;SDS011;65653;53.106;18.046;2023-09-07T08:26:59;6.00;;;5.20;;
76729;SDS011;65653;53.106;18.046;2023-09-07T08:29:26;6.40;;;4.70;;
76729;SDS011;65653;53.106;18.046;2023-09-07T08:31:53;5.90;;;5.40;;
76729;SDS011;65653;53.106;18.046;2023-09-07T08:34:20;5.80;;;5.10;;
76729;SDS011;65653;53.106;18.046;2023-09-07T08:36:48;9.20;;;4.90;;
76729;SDS011;65653;53.106;18.046;2023-09-07T08:39:16;7.00;;;5.20;;
76729;SDS011;65653;53.106;18.046;2023-09-07T08:41:43;11.10;;;9.30;;
76729;SDS011;65653;53.106;18.046;2023-09-07T08:44:11;7.80;;;5.30;;
76729;SDS011;65653;53.106;18.046;2023-09-07T08:46:38;5.00;;;4.40;;
76729;SDS011;65653;53.106;18.046;2023-09-07T08:49:04;4.30;;;3.50;;
76729;SDS011;65653;53.106;18.046;2023-09-07T08:51:31;5.00;;;4.50;;
76729;SDS011;65653;53.106;18.046;2023-09-07T08:53:58;5.90;;;4.30;;
76729;SDS011;65653;53.106;18.046;2023-09-07T08:56:25;8.50;;;5.10;;
76729;SDS011;65653;53.106;18.046;2023-09-07T08:58:51;6.10;;;5.40;;
76729;SDS011;65653;53.106;18.046;2023-09-07T09:01:18;4.20;;;3.90;;
76729;SDS011;65653;53.106;18.046;2023-09-07T09:03:45;4.70;;;4.20;;
76729;SDS011;65653;53.106;18.046;2023-09-07T09:06:12;6.90;;;4.00;;
76729;SDS011;65653;53.106;18.046;2023-09-07T09:08:41;3.80;;;3.50;;
76729;SDS011;65653;53.106;18.046;2023-09-07T09:11:20;4.20;;;3.80;;
76729;SDS011;65653;53.106;18.046;2023-09-07T09:13:49;5.40;;;3.80;;
76729;SDS011;65653;53.106;18.046;2023-09-07T09:16:16;5.60;;;3.40;;
76729;SDS011;65653;53.106;18.046;2023-09-07T09:18:50;9.00;;;3.20;;
76729;SDS011;65653;53.106;18.046;2023-09-07T09:21:19;5.30;;;3.20;;
76729;SDS011;65653;53.106;18.046;2023-09-07T09:23:49;3.60;;;3.00;;
76729;SDS011;65653;53.106;18.046;2023-09-07T09:26:18;9.40;;;6.60;;
76729;SDS011;65653;53.106;18.046;2023-09-07T09:28:45;4.10;;;3.40;;
76729;SDS011;65653;53.106;18.046;2023-09-07T09:31:13;11.00;;;7.40;;
76729;SDS011;65653;53.106;18.046;2023-09-07T09:33:41;5.40;;;3.50;;
76729;SDS011;65653;53.106;18.046;2023-09-07T09:36:08;7.40;;;4.70;;
76729;SDS011;65653;53.106;18.046;2023-09-07T09:38:35;5.70;;;3.90;;
76729;SDS011;65653;53.106;18.046;2023-09-07T09:41:03;3.20;;;2.80;;
76729;SDS011;65653;53.106;18.046;2023-09-07T09:43:32;3.00;;;2.70;;
76729;SDS011;65653;53.106;18.046;2023-09-07T09:45:59;4.30;;;3.50;;
76729;SDS011;65653;53.106;18.046;2023-09-07T09:48:27;4.50;;;2.90;;
76729;SDS011;65653;53.106;18.046;2023-09-07T09:50:54;5.50;;;3.20;;
76729;SDS011;65653;53.106;18.046;2023-09-07T09:53:22;7.50;;;3.50;;
76729;SDS011;65653;53.106;18.046;2023-09-07T09:55:50;5.70;;;3.20;;
76729;SDS011;65653;53.106;18.046;2023-09-07T09:58:20;7.10;;;4.30;;
76729;SDS011;65653;53.106;18.046;2023-09-07T10:00:47;4.30;;;2.70;;
76729;SDS011;65653;53.106;18.046;2023-09-07T10:03:18;4.50;;;3.10;;
76729;SDS011;65653;53.106;18.046;2023-09-07T10:06:08;3.80;;;2.90;;
76729;SDS011;65653;53.106;18.046;2023-09-07T10:11:33;5.00;;;2.90;;
76729;SDS011;65653;53.106;18.046;2023-09-07T10:14:01;3.90;;;3.10;;
76729;SDS011;65653;53.106;18.046;2023-09-07T10:16:41;5.50;;;2.80;;
76729;SDS011;65653;53.106;18.046;2023-09-07T10:19:18;5.70;;;3.20;;
76729;SDS011;65653;53.106;18.046;2023-09-07T10:21:48;3.40;;;2.90;;
76729;SDS011;65653;53.106;18.046;2023-09-07T10:24:27;4.30;;;2.40;;
76729;SDS011;65653;53.106;18.046;2023-09-07T10:26:56;4.40;;;2.90;;
76729;SDS011;65653;53.106;18.046;2023-09-07T10:29:26;4.00;;;2.60;;
76729;SDS011;65653;53.106;18.046;2023-09-07T10:31:54;3.10;;;2.50;;
76729;SDS011;65653;53.106;18.046;2023-09-07T10:34:20;4.20;;;2.60;;
76729;SDS011;65653;53.106;18.046;2023-09-07T10:36:48;4.70;;;2.80;;
76729;SDS011;65653;53.106;18.046;2023-09-07T10:39:22;4.60;;;2.50;;
76729;SDS011;65653;53.106;18.046;2023-09-07T10:41:48;3.70;;;2.40;;
76729;SDS011;65653;53.106;18.046;2023-09-07T10:44:15;3.70;;;2.50;;
76729;SDS011;65653;53.106;18.046;2023-09-07T10:46:41;4.00;;;2.40;;
76729;SDS011;65653;53.106;18.046;2023-09-07T10:49:08;3.70;;;2.60;;
76729;SDS011;65653;53.106;18.046;2023-09-07T10:51:44;3.00;;;2.70;;
76729;SDS011;65653;53.106;18.046;2023-09-07T10:54:22;3.20;;;2.50;;
76729;SDS011;65653;53.106;18.046;2023-09-07T10:56:50;4.70;;;2.20;;
76729;SDS011;65653;53.106;18.046;2023-09-07T10:59:17;2.30;;;2.00;;
76729;SDS011;65653;53.106;18.046;2023-09-07T11:01:44;4.40;;;2.00;;
76729;SDS011;65653;53.106;18.046;2023-09-07T11:04:11;2.30;;;2.20;;
76729;SDS011;65653;53.106;18.046;2023-09-07T11:06:39;2.40;;;2.10;;
76729;SDS011;65653;53.106;18.046;2023-09-07T11:09:08;4.40;;;3.40;;
76729;SDS011;65653;53.106;18.046;2023-09-07T11:11:36;3.20;;;2.80;;
76729;SDS011;65653;53.106;18.046;2023-09-07T11:14:03;7.80;;;4.50;;
76729;SDS011;65653;53.106;18.046;2023-09-07T11:16:33;4.50;;;2.70;;
76729;SDS011;65653;53.106;18.046;2023-09-07T11:19:04;3.40;;;2.20;;
76729;SDS011;65653;53.106;18.046;2023-09-07T11:21:31;2.20;;;2.10;;
76729;SDS011;65653;53.106;18.046;2023-09-07T11:24:00;2.50;;;2.10;;
76729;SDS011;65653;53.106;18.046;2023-09-07T11:26:27;3.20;;;2.10;;
76729;SDS011;65653;53.106;18.046;2023-09-07T11:28:53;3.20;;;2.10;;
76729;SDS011;65653;53.106;18.046;2023-09-07T11:31:23;2.30;;;2.10;;
76729;SDS011;65653;53.106;18.046;2023-09-07T11:33:49;2.50;;;2.00;;
76729;SDS011;65653;53.106;18.046;2023-09-07T11:36:15;3.00;;;2.00;;
76729;SDS011;65653;53.106;18.046;2023-09-07T11:38:42;2.10;;;1.70;;
76729;SDS011;65653;53.106;18.046;2023-09-07T11:43:37;2.30;;;2.10;;
76729;SDS011;65653;53.106;18.046;2023-09-07T11:46:05;3.60;;;1.90;;
76729;SDS011;65653;53.106;18.046;2023-09-07T11:48:32;2.30;;;1.90;;
76729;SDS011;65653;53.106;18.046;2023-09-07T11:51:00;2.90;;;1.90;;
76729;SDS011;65653;53.106;18.046;2023-09-07T11:53:27;3.20;;;1.90;;
76729;SDS011;65653;53.106;18.046;2023-09-07T11:55:54;2.80;;;2.10;;
76729;SDS011;65653;53.106;18.046;2023-09-07T11:58:20;2.60;;;2.00;;
76729;SDS011;65653;53.106;18.046;2023-09-07T12:00:47;2.50;;;1.80;;
76729;SDS011;65653;53.106;18.046;2023-09-07T12:03:13;2.80;;;1.80;;
76729;SDS011;65653;53.106;18.046;2023-09-07T12:05:40;2.00;;;1.90;;
76729;SDS011;65653;53.106;18.046;2023-09-07T12:08:08;3.80;;;2.10;;
76729;SDS011;65653;53.106;18.046;2023-09-07T12:10:35;2.30;;;1.70;;
76729;SDS011;65653;53.106;18.046;2023-09-07T12:13:01;2.80;;;2.20;;
76729;SDS011;65653;53.106;18.046;2023-09-07T12:15:28;2.70;;;2.00;;
76729;SDS011;65653;53.106;18.046;2023-09-07T12:17:54;3.20;;;1.90;;
76729;SDS011;65653;53.106;18.046;2023-09-07T12:20:21;3.50;;;2.40;;
76729;SDS011;65653;53.106;18.046;2023-09-07T12:22:48;3.10;;;1.90;;
76729;SDS011;65653;53.106;18.046;2023-09-07T12:25:15;3.60;;;2.10;;
76729;SDS011;65653;53.106;18.046;2023-09-07T12:27:42;3.10;;;1.90;;
76729;SDS011;65653;53.106;18.046;2023-09-07T12:30:10;2.90;;;1.90;;
76729;SDS011;65653;53.106;18.046;2023-09-07T12:32:39;2.50;;;2.00;;
76729;SDS011;65653;53.106;18.046;2023-09-07T12:35:06;2.20;;;2.00;;
76729;SDS011;65653;53.106;18.046;2023-09-07T12:37:35;3.90;;;2.30;;
76729;SDS011;65653;53.106;18.046;2023-09-07T12:40:05;2.80;;;2.30;;
76729;SDS011;65653;53.106;18.046;2023-09-07T12:42:41;3.50;;;2.40;;
76729;SDS011;65653;53.106;18.046;2023-09-07T12:45:08;2.50;;;2.30;;
76729;SDS011;65653;53.106;18.046;2023-09-07T12:47:35;2.90;;;2.60;;
76729;SDS011;65653;53.106;18.046;2023-09-07T12:50:02;5.10;;;3.70;;
76729;SDS011;65653;53.106;18.046;2023-09-07T12:52:31;4.30;;;2.80;;
76729;SDS011;65653;53.106;18.046;2023-09-07T12:54:58;5.10;;;3.30;;
76729;SDS011;65653;53.106;18.046;2023-09-07T12:57:24;5.40;;;2.00;;
76729;SDS011;65653;53.106;18.046;2023-09-07T12:59:51;3.70;;;2.10;;
76729;SDS011;65653;53.106;18.046;2023-09-07T13:02:17;2.70;;;2.10;;
76729;SDS011;65653;53.106;18.046;2023-09-07T13:04:44;3.70;;;1.80;;
76729;SDS011;65653;53.106;18.046;2023-09-07T13:07:10;3.00;;;2.20;;
76729;SDS011;65653;53.106;18.046;2023-09-07T13:09:36;2.50;;;1.90;;
76729;SDS011;65653;53.106;18.046;2023-09-07T13:12:03;2.20;;;2.00;;
76729;SDS011;65653;53.106;18.046;2023-09-07T13:14:30;2.20;;;2.00;;
76729;SDS011;65653;53.106;18.046;2023-09-07T13:16:56;2.60;;;2.20;;
76729;SDS011;65653;53.106;18.046;2023-09-07T13:19:23;1.90;;;1.80;;
76729;SDS011;65653;53.106;18.046;2023-09-07T13:21:49;1.90;;;1.80;;
76729;SDS011;65653;53.106;18.046;2023-09-07T13:24:15;2.20;;;1.80;;
76729;SDS011;65653;53.106;18.046;2023-09-07T13:26:46;2.90;;;2.10;;
76729;SDS011;65653;53.106;18.046;2023-09-07T13:29:13;4.80;;;1.90;;
76729;SDS011;65653;53.106;18.046;2023-09-07T13:31:39;1.80;;;1.70;;
76729;SDS011;65653;53.106;18.046;2023-09-07T13:34:05;3.40;;;1.70;;
76729;SDS011;65653;53.106;18.046;2023-09-07T13:36:32;1.90;;;1.70;;
76729;SDS011;65653;53.106;18.046;2023-09-07T13:38:58;2.00;;;1.80;;
76729;SDS011;65653;53.106;18.046;2023-09-07T13:41:25;4.60;;;2.00;;
76729;SDS011;65653;53.106;18.046;2023-09-07T13:43:52;2.50;;;1.80;;
76729;SDS011;65653;53.106;18.046;2023-09-07T13:46:20;1.70;;;1.60;;
76729;SDS011;65653;53.106;18.046;2023-09-07T13:48:46;2.30;;;1.60;;
76729;SDS011;65653;53.106;18.046;2023-09-07T13:51:12;2.20;;;1.90;;
76729;SDS011;65653;53.106;18.046;2023-09-07T13:53:39;2.80;;;1.90;;
76729;SDS011;65653;53.106;18.046;2023-09-07T13:56:05;2.00;;;1.60;;
76729;SDS011;65653;53.106;18.046;2023-09-07T13:58:32;1.80;;;1.70;;
76729;SDS011;65653;53.106;18.046;2023-09-07T14:00:58;2.10;;;1.60;;
76729;SDS011;65653;53.106;18.046;2023-09-07T14:03:24;2.90;;;1.90;;
76729;SDS011;65653;53.106;18.046;2023-09-07T14:05:51;1.90;;;1.50;;
76729;SDS011;65653;53.106;18.046;2023-09-07T14:08:17;1.70;;;1.60;;
76729;SDS011;65653;53.106;18.046;2023-09-07T14:10:49;2.00;;;1.70;;
76729;SDS011;65653;53.106;18.046;2023-09-07T14:13:17;1.90;;;1.80;;
76729;SDS011;65653;53.106;18.046;2023-09-07T14:15:44;2.10;;;1.60;;
76729;SDS011;65653;53.106;18.046;2023-09-07T14:18:11;2.50;;;1.80;;
76729;SDS011;65653;53.106;18.046;2023-09-07T14:20:38;3.40;;;2.00;;
76729;SDS011;65653;53.106;18.046;2023-09-07T14:23:04;2.10;;;1.90;;
76729;SDS011;65653;53.106;18.046;2023-09-07T14:25:30;2.00;;;1.80;;
76729;SDS011;65653;53.106;18.046;2023-09-07T14:27:57;2.30;;;1.50;;
76729;SDS011;65653;53.106;18.046;2023-09-07T14:30:24;1.90;;;1.70;;
76729;SDS011;65653;53.106;18.046;2023-09-07T14:32:51;2.50;;;1.70;;
76729;SDS011;65653;53.106;18.046;2023-09-07T14:35:17;5.40;;;1.80;;